sensor_id;sensor_type;location;lat;lon;timestamp;P1;durP1;ratioP1;P2;durP2;ratioP2
54937;SDS011;52756;52.826;6.214;2022-12-22T00:02:23;41.67;;;28.30;;
54937;SDS011;52756;52.826;6.214;2022-12-22T00:05:15;39.03;;;27.58;;
54937;SDS011;52756;52.826;6.214;2022-12-22T00:08:02;38.60;;;27.20;;
54937;SDS011;52756;52.826;6.214;2022-12-22T00:10:46;32.95;;;25.90;;
54937;SDS011;52756;52.826;6.214;2022-12-22T00:13:31;41.85;;;28.05;;
54937;SDS011;52756;52.826;6.214;2022-12-22T00:16:16;39.92;;;28.23;;
54937;SDS011;52756;52.826;6.214;2022-12-22T00:19:00;38.72;;;26.90;;
54937;SDS011;52756;52.826;6.214;2022-12-22T00:21:44;39.72;;;26.50;;
54937;SDS011;52756;52.826;6.214;2022-12-22T00:24:28;37.03;;;26.80;;
54937;SDS011;52756;52.826;6.214;2022-12-22T00:27:14;38.50;;;27.15;;
54937;SDS011;52756;52.826;6.214;2022-12-22T00:30:00;36.05;;;26.25;;
54937;SDS011;52756;52.826;6.214;2022-12-22T00:32:45;36.60;;;26.67;;
54937;SDS011;52756;52.826;6.214;2022-12-22T00:35:30;41.70;;;27.90;;
54937;SDS011;52756;52.826;6.214;2022-12-22T00:38:16;43.08;;;28.13;;
54937;SDS011;52756;52.826;6.214;2022-12-22T00:41:04;34.75;;;26.10;;
54937;SDS011;52756;52.826;6.214;2022-12-22T00:43:49;38.00;;;27.60;;
54937;SDS011;52756;52.826;6.214;2022-12-22T00:46:34;40.58;;;27.40;;
54937;SDS011;52756;52.826;6.214;2022-12-22T00:49:22;37.53;;;27.80;;
54937;SDS011;52756;52.826;6.214;2022-12-22T00:52:08;37.70;;;28.30;;
54937;SDS011;52756;52.826;6.214;2022-12-22T00:54:53;35.88;;;26.58;;
54937;SDS011;52756;52.826;6.214;2022-12-22T00:57:38;39.65;;;27.67;;
54937;SDS011;52756;52.826;6.214;2022-12-22T01:00:24;38.08;;;26.95;;
54937;SDS011;52756;52.826;6.214;2022-12-22T01:03:09;36.80;;;25.38;;
54937;SDS011;52756;52.826;6.214;2022-12-22T01:05:53;43.17;;;28.13;;
54937;SDS011;52756;52.826;6.214;2022-12-22T01:11:22;38.47;;;26.55;;
54937;SDS011;52756;52.826;6.214;2022-12-22T01:14:09;39.33;;;26.67;;
54937;SDS011;52756;52.826;6.214;2022-12-22T01:16:55;39.33;;;28.38;;
54937;SDS011;52756;52.826;6.214;2022-12-22T01:19:39;45.28;;;29.08;;
54937;SDS011;52756;52.826;6.214;2022-12-22T01:22:23;43.50;;;28.80;;
54937;SDS011;52756;52.826;6.214;2022-12-22T01:25:09;39.22;;;27.75;;
54937;SDS011;52756;52.826;6.214;2022-12-22T01:27:55;38.08;;;27.00;;
54937;SDS011;52756;52.826;6.214;2022-12-22T01:30:39;42.05;;;30.33;;
54937;SDS011;52756;52.826;6.214;2022-12-22T01:36:08;38.00;;;26.38;;
54937;SDS011;52756;52.826;6.214;2022-12-22T01:38:52;39.63;;;28.17;;
54937;SDS011;52756;52.826;6.214;2022-12-22T01:41:37;43.03;;;28.88;;
54937;SDS011;52756;52.826;6.214;2022-12-22T01:44:22;43.70;;;28.25;;
54937;SDS011;52756;52.826;6.214;2022-12-22T01:50:13;40.25;;;28.23;;
54937;SDS011;52756;52.826;6.214;2022-12-22T01:52:58;38.38;;;26.85;;
54937;SDS011;52756;52.826;6.214;2022-12-22T01:55:43;37.38;;;26.20;;
54937;SDS011;52756;52.826;6.214;2022-12-22T01:58:29;35.92;;;26.65;;
54937;SDS011;52756;52.826;6.214;2022-12-22T02:01:17;39.85;;;25.17;;
54937;SDS011;52756;52.826;6.214;2022-12-22T02:04:02;37.38;;;25.83;;
54937;SDS011;52756;52.826;6.214;2022-12-22T02:06:47;33.58;;;24.95;;
54937;SDS011;52756;52.826;6.214;2022-12-22T02:09:46;31.42;;;23.83;;
54937;SDS011;52756;52.826;6.214;2022-12-22T02:16:42;30.48;;;23.10;;
54937;SDS011;52756;52.826;6.214;2022-12-22T02:19:34;31.45;;;22.55;;
54937;SDS011;52756;52.826;6.214;2022-12-22T02:29:09;31.42;;;22.85;;
54937;SDS011;52756;52.826;6.214;2022-12-22T02:31:56;30.83;;;23.08;;
54937;SDS011;52756;52.826;6.214;2022-12-22T02:34:40;32.30;;;24.08;;
54937;SDS011;52756;52.826;6.214;2022-12-22T02:46:25;31.20;;;23.17;;
54937;SDS011;52756;52.826;6.214;2022-12-22T02:49:30;32.20;;;23.17;;
54937;SDS011;52756;52.826;6.214;2022-12-22T02:52:24;33.88;;;24.77;;
54937;SDS011;52756;52.826;6.214;2022-12-22T02:55:13;32.42;;;23.90;;
54937;SDS011;52756;52.826;6.214;2022-12-22T02:57:59;33.00;;;23.42;;
54937;SDS011;52756;52.826;6.214;2022-12-22T03:00:43;39.22;;;26.45;;
54937;SDS011;52756;52.826;6.214;2022-12-22T03:03:27;35.47;;;24.85;;
54937;SDS011;52756;52.826;6.214;2022-12-22T03:06:11;36.90;;;26.42;;
54937;SDS011;52756;52.826;6.214;2022-12-22T03:08:56;39.08;;;27.58;;
54937;SDS011;52756;52.826;6.214;2022-12-22T03:11:40;41.30;;;27.63;;
54937;SDS011;52756;52.826;6.214;2022-12-22T03:14:24;36.97;;;26.15;;
54937;SDS011;52756;52.826;6.214;2022-12-22T03:17:08;36.60;;;26.05;;
54937;SDS011;52756;52.826;6.214;2022-12-22T03:19:52;37.60;;;26.33;;
54937;SDS011;52756;52.826;6.214;2022-12-22T03:22:37;37.63;;;25.30;;
54937;SDS011;52756;52.826;6.214;2022-12-22T03:25:21;39.80;;;26.52;;
54937;SDS011;52756;52.826;6.214;2022-12-22T03:28:05;40.08;;;25.50;;
54937;SDS011;52756;52.826;6.214;2022-12-22T03:30:32;33.78;;;24.15;;
54937;SDS011;52756;52.826;6.214;2022-12-22T03:32:59;37.08;;;25.50;;
54937;SDS011;52756;52.826;6.214;2022-12-22T03:35:25;37.53;;;26.13;;
54937;SDS011;52756;52.826;6.214;2022-12-22T03:37:51;37.67;;;25.05;;
54937;SDS011;52756;52.826;6.214;2022-12-22T03:40:16;38.13;;;26.55;;
54937;SDS011;52756;52.826;6.214;2022-12-22T03:42:42;36.28;;;25.65;;
54937;SDS011;52756;52.826;6.214;2022-12-22T03:45:27;37.90;;;25.98;;
54937;SDS011;52756;52.826;6.214;2022-12-22T03:48:11;41.88;;;28.20;;
54937;SDS011;52756;52.826;6.214;2022-12-22T03:50:36;38.45;;;26.40;;
54937;SDS011;52756;52.826;6.214;2022-12-22T03:53:02;39.55;;;27.10;;
54937;SDS011;52756;52.826;6.214;2022-12-22T03:55:28;36.78;;;25.35;;
54937;SDS011;52756;52.826;6.214;2022-12-22T03:57:54;37.58;;;25.25;;
54937;SDS011;52756;52.826;6.214;2022-12-22T04:00:20;37.45;;;25.77;;
54937;SDS011;52756;52.826;6.214;2022-12-22T04:02:45;36.92;;;25.40;;
54937;SDS011;52756;52.826;6.214;2022-12-22T04:05:11;36.15;;;25.17;;
54937;SDS011;52756;52.826;6.214;2022-12-22T04:07:37;40.42;;;27.08;;
54937;SDS011;52756;52.826;6.214;2022-12-22T04:10:03;40.97;;;26.00;;
54937;SDS011;52756;52.826;6.214;2022-12-22T04:12:50;37.42;;;24.70;;
54937;SDS011;52756;52.826;6.214;2022-12-22T04:15:19;39.85;;;26.13;;
54937;SDS011;52756;52.826;6.214;2022-12-22T04:17:48;37.28;;;26.33;;
54937;SDS011;52756;52.826;6.214;2022-12-22T04:20:14;38.60;;;25.48;;
54937;SDS011;52756;52.826;6.214;2022-12-22T04:22:40;39.72;;;24.40;;
54937;SDS011;52756;52.826;6.214;2022-12-22T04:25:06;36.30;;;25.65;;
54937;SDS011;52756;52.826;6.214;2022-12-22T04:27:32;39.05;;;25.13;;
54937;SDS011;52756;52.826;6.214;2022-12-22T04:29:57;38.42;;;25.88;;
54937;SDS011;52756;52.826;6.214;2022-12-22T04:32:23;40.92;;;26.23;;
54937;SDS011;52756;52.826;6.214;2022-12-22T04:34:49;36.08;;;23.80;;
54937;SDS011;52756;52.826;6.214;2022-12-22T04:37:14;35.97;;;25.48;;
54937;SDS011;52756;52.826;6.214;2022-12-22T04:39:40;38.70;;;25.52;;
54937;SDS011;52756;52.826;6.214;2022-12-22T04:42:06;38.50;;;25.67;;
54937;SDS011;52756;52.826;6.214;2022-12-22T04:44:31;38.08;;;25.65;;
54937;SDS011;52756;52.826;6.214;2022-12-22T04:46:57;39.03;;;26.15;;
54937;SDS011;52756;52.826;6.214;2022-12-22T04:49:23;44.25;;;26.98;;
54937;SDS011;52756;52.826;6.214;2022-12-22T04:51:48;44.38;;;28.38;;
54937;SDS011;52756;52.826;6.214;2022-12-22T04:54:14;41.97;;;26.98;;
54937;SDS011;52756;52.826;6.214;2022-12-22T04:56:40;35.95;;;24.77;;
54937;SDS011;52756;52.826;6.214;2022-12-22T04:59:05;43.38;;;27.83;;
54937;SDS011;52756;52.826;6.214;2022-12-22T05:01:31;42.75;;;26.55;;
54937;SDS011;52756;52.826;6.214;2022-12-22T05:03:57;45.40;;;26.75;;
54937;SDS011;52756;52.826;6.214;2022-12-22T05:06:22;45.40;;;28.02;;
54937;SDS011;52756;52.826;6.214;2022-12-22T05:08:48;51.50;;;29.45;;
54937;SDS011;52756;52.826;6.214;2022-12-22T05:11:14;56.85;;;30.42;;
54937;SDS011;52756;52.826;6.214;2022-12-22T05:13:39;53.67;;;28.70;;
54937;SDS011;52756;52.826;6.214;2022-12-22T05:16:10;53.25;;;29.05;;
54937;SDS011;52756;52.826;6.214;2022-12-22T05:18:38;56.13;;;30.30;;
54937;SDS011;52756;52.826;6.214;2022-12-22T05:21:05;59.20;;;31.00;;
54937;SDS011;52756;52.826;6.214;2022-12-22T05:23:32;56.05;;;30.13;;
54937;SDS011;52756;52.826;6.214;2022-12-22T05:25:58;53.55;;;28.83;;
54937;SDS011;52756;52.826;6.214;2022-12-22T05:28:23;53.03;;;28.05;;
54937;SDS011;52756;52.826;6.214;2022-12-22T05:30:49;48.90;;;28.67;;
54937;SDS011;52756;52.826;6.214;2022-12-22T05:33:15;52.97;;;28.83;;
54937;SDS011;52756;52.826;6.214;2022-12-22T05:35:40;53.58;;;29.17;;
54937;SDS011;52756;52.826;6.214;2022-12-22T05:38:06;52.42;;;28.70;;
54937;SDS011;52756;52.826;6.214;2022-12-22T05:40:32;55.97;;;29.08;;
54937;SDS011;52756;52.826;6.214;2022-12-22T05:42:57;63.42;;;31.38;;
54937;SDS011;52756;52.826;6.214;2022-12-22T05:45:23;65.72;;;29.23;;
54937;SDS011;52756;52.826;6.214;2022-12-22T05:47:49;71.15;;;34.00;;
54937;SDS011;52756;52.826;6.214;2022-12-22T05:50:17;62.95;;;30.80;;
54937;SDS011;52756;52.826;6.214;2022-12-22T05:52:45;68.82;;;29.67;;
54937;SDS011;52756;52.826;6.214;2022-12-22T05:55:12;60.83;;;29.98;;
54937;SDS011;52756;52.826;6.214;2022-12-22T05:57:38;61.42;;;29.90;;
54937;SDS011;52756;52.826;6.214;2022-12-22T06:00:05;59.30;;;28.33;;
54937;SDS011;52756;52.826;6.214;2022-12-22T06:02:32;51.20;;;26.83;;
54937;SDS011;52756;52.826;6.214;2022-12-22T06:04:58;52.40;;;26.60;;
54937;SDS011;52756;52.826;6.214;2022-12-22T06:07:23;50.42;;;26.67;;
54937;SDS011;52756;52.826;6.214;2022-12-22T06:09:49;49.65;;;25.33;;
54937;SDS011;52756;52.826;6.214;2022-12-22T06:12:15;49.47;;;24.95;;
54937;SDS011;52756;52.826;6.214;2022-12-22T06:14:41;47.03;;;25.95;;
54937;SDS011;52756;52.826;6.214;2022-12-22T06:17:06;44.83;;;24.17;;
54937;SDS011;52756;52.826;6.214;2022-12-22T06:19:32;44.72;;;23.50;;
54937;SDS011;52756;52.826;6.214;2022-12-22T06:21:58;41.53;;;22.95;;
54937;SDS011;52756;52.826;6.214;2022-12-22T06:24:23;40.45;;;23.45;;
54937;SDS011;52756;52.826;6.214;2022-12-22T06:26:49;40.92;;;23.02;;
54937;SDS011;52756;52.826;6.214;2022-12-22T06:29:15;39.47;;;23.50;;
54937;SDS011;52756;52.826;6.214;2022-12-22T06:31:40;44.63;;;22.88;;
54937;SDS011;52756;52.826;6.214;2022-12-22T06:34:07;39.30;;;22.90;;
54937;SDS011;52756;52.826;6.214;2022-12-22T06:36:34;37.25;;;22.10;;
54937;SDS011;52756;52.826;6.214;2022-12-22T06:39:00;35.20;;;21.33;;
54937;SDS011;52756;52.826;6.214;2022-12-22T06:41:26;37.92;;;21.60;;
54937;SDS011;52756;52.826;6.214;2022-12-22T06:44:10;35.47;;;21.27;;
54937;SDS011;52756;52.826;6.214;2022-12-22T06:46:36;36.67;;;20.75;;
54937;SDS011;52756;52.826;6.214;2022-12-22T06:49:02;34.63;;;20.85;;
54937;SDS011;52756;52.826;6.214;2022-12-22T06:51:27;32.40;;;19.52;;
54937;SDS011;52756;52.826;6.214;2022-12-22T06:53:53;33.15;;;19.15;;
54937;SDS011;52756;52.826;6.214;2022-12-22T06:56:19;33.22;;;20.13;;
54937;SDS011;52756;52.826;6.214;2022-12-22T06:58:44;31.35;;;18.85;;
54937;SDS011;52756;52.826;6.214;2022-12-22T07:01:10;33.47;;;19.98;;
54937;SDS011;52756;52.826;6.214;2022-12-22T07:03:36;31.55;;;19.25;;
54937;SDS011;52756;52.826;6.214;2022-12-22T07:06:01;30.58;;;17.50;;
54937;SDS011;52756;52.826;6.214;2022-12-22T07:08:27;29.15;;;18.27;;
54937;SDS011;52756;52.826;6.214;2022-12-22T07:10:53;28.85;;;17.27;;
54937;SDS011;52756;52.826;6.214;2022-12-22T07:13:25;29.50;;;18.67;;
54937;SDS011;52756;52.826;6.214;2022-12-22T07:15:56;31.17;;;18.30;;
54937;SDS011;52756;52.826;6.214;2022-12-22T07:18:22;30.10;;;17.95;;
54937;SDS011;52756;52.826;6.214;2022-12-22T07:20:48;30.48;;;18.48;;
54937;SDS011;52756;52.826;6.214;2022-12-22T07:23:14;31.92;;;17.27;;
54937;SDS011;52756;52.826;6.214;2022-12-22T07:25:39;31.15;;;17.23;;
54937;SDS011;52756;52.826;6.214;2022-12-22T07:28:06;28.77;;;17.65;;
54937;SDS011;52756;52.826;6.214;2022-12-22T07:30:32;35.70;;;17.83;;
54937;SDS011;52756;52.826;6.214;2022-12-22T07:32:59;29.48;;;17.27;;
54937;SDS011;52756;52.826;6.214;2022-12-22T07:35:25;25.00;;;14.13;;
54937;SDS011;52756;52.826;6.214;2022-12-22T07:37:50;26.27;;;14.82;;
54937;SDS011;52756;52.826;6.214;2022-12-22T07:40:16;26.63;;;13.68;;
54937;SDS011;52756;52.826;6.214;2022-12-22T07:42:42;24.40;;;15.07;;
54937;SDS011;52756;52.826;6.214;2022-12-22T07:45:11;27.23;;;14.35;;
54937;SDS011;52756;52.826;6.214;2022-12-22T07:47:38;23.17;;;14.10;;
54937;SDS011;52756;52.826;6.214;2022-12-22T07:50:05;23.42;;;14.27;;
54937;SDS011;52756;52.826;6.214;2022-12-22T07:52:51;22.88;;;14.45;;
54937;SDS011;52756;52.826;6.214;2022-12-22T07:55:18;24.83;;;12.70;;
54937;SDS011;52756;52.826;6.214;2022-12-22T07:57:44;21.70;;;13.05;;
54937;SDS011;52756;52.826;6.214;2022-12-22T08:00:10;23.27;;;14.50;;
54937;SDS011;52756;52.826;6.214;2022-12-22T08:02:37;21.27;;;12.32;;
54937;SDS011;52756;52.826;6.214;2022-12-22T08:05:03;21.50;;;13.13;;
54937;SDS011;52756;52.826;6.214;2022-12-22T08:07:29;22.42;;;12.80;;
54937;SDS011;52756;52.826;6.214;2022-12-22T08:09:56;20.27;;;12.18;;
54937;SDS011;52756;52.826;6.214;2022-12-22T08:12:22;20.63;;;12.57;;
54937;SDS011;52756;52.826;6.214;2022-12-22T08:14:48;20.73;;;11.77;;
54937;SDS011;52756;52.826;6.214;2022-12-22T08:17:14;18.90;;;11.60;;
54937;SDS011;52756;52.826;6.214;2022-12-22T08:19:39;19.75;;;12.23;;
54937;SDS011;52756;52.826;6.214;2022-12-22T08:22:05;17.42;;;11.13;;
54937;SDS011;52756;52.826;6.214;2022-12-22T08:24:31;17.92;;;11.30;;
54937;SDS011;52756;52.826;6.214;2022-12-22T08:26:58;17.98;;;10.50;;
54937;SDS011;52756;52.826;6.214;2022-12-22T08:29:31;14.25;;;10.00;;
54937;SDS011;52756;52.826;6.214;2022-12-22T08:32:04;15.93;;;9.98;;
54937;SDS011;52756;52.826;6.214;2022-12-22T08:34:30;15.43;;;9.55;;
54937;SDS011;52756;52.826;6.214;2022-12-22T08:36:57;17.23;;;10.07;;
54937;SDS011;52756;52.826;6.214;2022-12-22T08:39:25;16.38;;;9.60;;
54937;SDS011;52756;52.826;6.214;2022-12-22T08:41:52;15.60;;;10.13;;
54937;SDS011;52756;52.826;6.214;2022-12-22T08:44:28;24.85;;;10.05;;
54937;SDS011;52756;52.826;6.214;2022-12-22T08:46:56;15.23;;;10.05;;
54937;SDS011;52756;52.826;6.214;2022-12-22T08:49:23;16.17;;;10.50;;
54937;SDS011;52756;52.826;6.214;2022-12-22T08:51:49;15.30;;;9.38;;
54937;SDS011;52756;52.826;6.214;2022-12-22T08:54:15;14.30;;;9.63;;
54937;SDS011;52756;52.826;6.214;2022-12-22T08:56:42;15.98;;;9.68;;
54937;SDS011;52756;52.826;6.214;2022-12-22T08:59:08;16.40;;;9.43;;
54937;SDS011;52756;52.826;6.214;2022-12-22T09:01:34;15.45;;;10.23;;
54937;SDS011;52756;52.826;6.214;2022-12-22T09:04:02;14.95;;;9.40;;
54937;SDS011;52756;52.826;6.214;2022-12-22T09:06:29;20.80;;;10.13;;
54937;SDS011;52756;52.826;6.214;2022-12-22T09:08:55;17.15;;;10.00;;
54937;SDS011;52756;52.826;6.214;2022-12-22T09:11:23;15.60;;;10.13;;
54937;SDS011;52756;52.826;6.214;2022-12-22T09:13:50;15.95;;;9.38;;
54937;SDS011;52756;52.826;6.214;2022-12-22T09:16:17;17.17;;;10.07;;
54937;SDS011;52756;52.826;6.214;2022-12-22T09:18:44;17.83;;;9.95;;
54937;SDS011;52756;52.826;6.214;2022-12-22T09:21:10;16.05;;;9.35;;
54937;SDS011;52756;52.826;6.214;2022-12-22T09:23:36;19.23;;;9.65;;
54937;SDS011;52756;52.826;6.214;2022-12-22T09:26:11;17.05;;;10.43;;
54937;SDS011;52756;52.826;6.214;2022-12-22T09:28:41;18.45;;;8.48;;
54937;SDS011;52756;52.826;6.214;2022-12-22T09:31:08;15.80;;;8.52;;
54937;SDS011;52756;52.826;6.214;2022-12-22T09:33:34;16.00;;;8.82;;
54937;SDS011;52756;52.826;6.214;2022-12-22T09:36:04;15.07;;;8.85;;
54937;SDS011;52756;52.826;6.214;2022-12-22T09:38:31;15.95;;;8.32;;
54937;SDS011;52756;52.826;6.214;2022-12-22T09:40:57;15.50;;;8.82;;
54937;SDS011;52756;52.826;6.214;2022-12-22T09:43:28;15.02;;;9.10;;
54937;SDS011;52756;52.826;6.214;2022-12-22T09:45:54;14.27;;;8.82;;
54937;SDS011;52756;52.826;6.214;2022-12-22T09:48:22;17.92;;;9.60;;
54937;SDS011;52756;52.826;6.214;2022-12-22T09:50:58;17.48;;;9.07;;
54937;SDS011;52756;52.826;6.214;2022-12-22T09:53:23;16.33;;;8.73;;
54937;SDS011;52756;52.826;6.214;2022-12-22T09:55:49;16.77;;;8.48;;
54937;SDS011;52756;52.826;6.214;2022-12-22T09:58:24;14.52;;;7.80;;
54937;SDS011;52756;52.826;6.214;2022-12-22T10:00:57;17.00;;;9.15;;
54937;SDS011;52756;52.826;6.214;2022-12-22T10:03:45;16.08;;;9.23;;
54937;SDS011;52756;52.826;6.214;2022-12-22T10:06:52;18.10;;;9.38;;
54937;SDS011;52756;52.826;6.214;2022-12-22T10:09:19;15.80;;;8.25;;
54937;SDS011;52756;52.826;6.214;2022-12-22T10:12:00;17.13;;;9.48;;
54937;SDS011;52756;52.826;6.214;2022-12-22T10:14:32;16.58;;;9.07;;
54937;SDS011;52756;52.826;6.214;2022-12-22T10:19:52;14.18;;;8.27;;
54937;SDS011;52756;52.826;6.214;2022-12-22T10:24:55;16.38;;;8.40;;
54937;SDS011;52756;52.826;6.214;2022-12-22T10:27:21;14.65;;;7.82;;
54937;SDS011;52756;52.826;6.214;2022-12-22T10:29:49;16.25;;;9.30;;
54937;SDS011;52756;52.826;6.214;2022-12-22T10:32:16;15.45;;;7.57;;
54937;SDS011;52756;52.826;6.214;2022-12-22T10:37:34;12.55;;;7.07;;
54937;SDS011;52756;52.826;6.214;2022-12-22T10:40:11;13.18;;;8.05;;
54937;SDS011;52756;52.826;6.214;2022-12-22T10:42:43;15.52;;;7.50;;
54937;SDS011;52756;52.826;6.214;2022-12-22T10:45:18;13.30;;;8.07;;
54937;SDS011;52756;52.826;6.214;2022-12-22T10:47:47;12.07;;;7.05;;
54937;SDS011;52756;52.826;6.214;2022-12-22T10:50:15;14.07;;;7.43;;
54937;SDS011;52756;52.826;6.214;2022-12-22T10:52:47;10.13;;;6.45;;
54937;SDS011;52756;52.826;6.214;2022-12-22T10:55:16;12.27;;;7.45;;
54937;SDS011;52756;52.826;6.214;2022-12-22T10:57:45;13.35;;;7.40;;
54937;SDS011;52756;52.826;6.214;2022-12-22T11:02:45;10.55;;;6.53;;
54937;SDS011;52756;52.826;6.214;2022-12-22T11:05:16;11.82;;;7.30;;
54937;SDS011;52756;52.826;6.214;2022-12-22T11:07:43;12.25;;;6.50;;
54937;SDS011;52756;52.826;6.214;2022-12-22T11:13:01;11.60;;;6.90;;
54937;SDS011;52756;52.826;6.214;2022-12-22T11:23:30;10.60;;;6.13;;
54937;SDS011;52756;52.826;6.214;2022-12-22T11:40:36;15.77;;;7.47;;
54937;SDS011;52756;52.826;6.214;2022-12-22T11:56:51;10.52;;;6.78;;
54937;SDS011;52756;52.826;6.214;2022-12-22T12:00:00;13.20;;;6.97;;
54937;SDS011;52756;52.826;6.214;2022-12-22T12:16:38;15.00;;;6.60;;
54937;SDS011;52756;52.826;6.214;2022-12-22T12:21:59;13.25;;;7.13;;
54937;SDS011;52756;52.826;6.214;2022-12-22T12:32:29;15.27;;;6.95;;
54937;SDS011;52756;52.826;6.214;2022-12-22T12:37:53;17.30;;;7.15;;
54937;SDS011;52756;52.826;6.214;2022-12-22T12:43:31;17.05;;;5.43;;
54937;SDS011;52756;52.826;6.214;2022-12-22T12:45:58;14.15;;;5.93;;
54937;SDS011;52756;52.826;6.214;2022-12-22T12:51:00;14.98;;;5.20;;
54937;SDS011;52756;52.826;6.214;2022-12-22T12:53:26;15.63;;;6.35;;
54937;SDS011;52756;52.826;6.214;2022-12-22T12:55:57;16.73;;;4.38;;
54937;SDS011;52756;52.826;6.214;2022-12-22T13:01:02;12.40;;;4.85;;
54937;SDS011;52756;52.826;6.214;2022-12-22T13:05:58;13.90;;;4.40;;
54937;SDS011;52756;52.826;6.214;2022-12-22T13:08:26;14.13;;;4.60;;
54937;SDS011;52756;52.826;6.214;2022-12-22T13:11:29;8.52;;;3.90;;
54937;SDS011;52756;52.826;6.214;2022-12-22T13:14:00;10.68;;;3.60;;
54937;SDS011;52756;52.826;6.214;2022-12-22T13:16:27;14.10;;;3.47;;
54937;SDS011;52756;52.826;6.214;2022-12-22T13:18:57;8.60;;;3.58;;
54937;SDS011;52756;52.826;6.214;2022-12-22T13:21:28;12.25;;;3.58;;
54937;SDS011;52756;52.826;6.214;2022-12-22T13:26:37;9.00;;;2.92;;
54937;SDS011;52756;52.826;6.214;2022-12-22T13:31:41;9.18;;;3.05;;
54937;SDS011;52756;52.826;6.214;2022-12-22T13:36:56;13.10;;;3.25;;
54937;SDS011;52756;52.826;6.214;2022-12-22T13:39:26;11.15;;;3.13;;
54937;SDS011;52756;52.826;6.214;2022-12-22T13:41:52;9.13;;;3.00;;
54937;SDS011;52756;52.826;6.214;2022-12-22T13:44:24;11.95;;;2.95;;
54937;SDS011;52756;52.826;6.214;2022-12-22T13:46:55;11.52;;;3.78;;
54937;SDS011;52756;52.826;6.214;2022-12-22T13:49:30;10.82;;;3.30;;
54937;SDS011;52756;52.826;6.214;2022-12-22T13:51:58;9.45;;;3.10;;
54937;SDS011;52756;52.826;6.214;2022-12-22T13:54:26;7.20;;;3.40;;
54937;SDS011;52756;52.826;6.214;2022-12-22T13:56:57;8.55;;;2.83;;
54937;SDS011;52756;52.826;6.214;2022-12-22T14:02:01;10.43;;;3.72;;
54937;SDS011;52756;52.826;6.214;2022-12-22T14:04:39;10.60;;;3.75;;
54937;SDS011;52756;52.826;6.214;2022-12-22T14:07:13;7.75;;;3.33;;
54937;SDS011;52756;52.826;6.214;2022-12-22T14:09:47;6.75;;;2.42;;
54937;SDS011;52756;52.826;6.214;2022-12-22T14:12:14;8.18;;;3.20;;
54937;SDS011;52756;52.826;6.214;2022-12-22T14:14:47;13.35;;;4.20;;
54937;SDS011;52756;52.826;6.214;2022-12-22T14:17:20;9.88;;;3.42;;
54937;SDS011;52756;52.826;6.214;2022-12-22T14:19:58;7.95;;;3.03;;
54937;SDS011;52756;52.826;6.214;2022-12-22T14:22:39;11.57;;;3.45;;
54937;SDS011;52756;52.826;6.214;2022-12-22T14:25:17;9.60;;;2.75;;
54937;SDS011;52756;52.826;6.214;2022-12-22T14:27:49;7.05;;;3.03;;
54937;SDS011;52756;52.826;6.214;2022-12-22T14:30:21;7.72;;;2.53;;
54937;SDS011;52756;52.826;6.214;2022-12-22T14:32:50;7.80;;;3.03;;
54937;SDS011;52756;52.826;6.214;2022-12-22T14:40:35;9.80;;;3.50;;
54937;SDS011;52756;52.826;6.214;2022-12-22T14:43:18;6.50;;;3.30;;
54937;SDS011;52756;52.826;6.214;2022-12-22T14:45:50;6.45;;;2.75;;
54937;SDS011;52756;52.826;6.214;2022-12-22T14:50:53;8.73;;;3.00;;
54937;SDS011;52756;52.826;6.214;2022-12-22T14:54:01;9.60;;;3.72;;
54937;SDS011;52756;52.826;6.214;2022-12-22T14:56:11;9.80;;;3.25;;
54937;SDS011;52756;52.826;6.214;2022-12-22T14:58:40;10.00;;;3.63;;
54937;SDS011;52756;52.826;6.214;2022-12-22T15:01:17;6.63;;;3.30;;
54937;SDS011;52756;52.826;6.214;2022-12-22T15:06:34;8.48;;;3.95;;
54937;SDS011;52756;52.826;6.214;2022-12-22T15:11:30;7.50;;;3.22;;
54937;SDS011;52756;52.826;6.214;2022-12-22T15:13:57;10.38;;;3.70;;
54937;SDS011;52756;52.826;6.214;2022-12-22T15:16:22;12.05;;;4.43;;
54937;SDS011;52756;52.826;6.214;2022-12-22T15:18:49;7.78;;;3.83;;
54937;SDS011;52756;52.826;6.214;2022-12-22T15:21:16;11.88;;;4.85;;
54937;SDS011;52756;52.826;6.214;2022-12-22T15:23:43;9.60;;;4.05;;
54937;SDS011;52756;52.826;6.214;2022-12-22T15:26:09;7.75;;;3.70;;
54937;SDS011;52756;52.826;6.214;2022-12-22T15:28:35;7.57;;;4.15;;
54937;SDS011;52756;52.826;6.214;2022-12-22T15:31:02;9.05;;;3.92;;
54937;SDS011;52756;52.826;6.214;2022-12-22T15:33:30;10.88;;;4.85;;
54937;SDS011;52756;52.826;6.214;2022-12-22T15:35:56;9.75;;;4.60;;
54937;SDS011;52756;52.826;6.214;2022-12-22T15:38:22;11.93;;;4.88;;
54937;SDS011;52756;52.826;6.214;2022-12-22T15:40:49;8.23;;;4.97;;
54937;SDS011;52756;52.826;6.214;2022-12-22T15:43:17;9.10;;;5.65;;
54937;SDS011;52756;52.826;6.214;2022-12-22T15:45:43;9.77;;;5.55;;
54937;SDS011;52756;52.826;6.214;2022-12-22T15:48:10;8.90;;;6.35;;
54937;SDS011;52756;52.826;6.214;2022-12-22T15:50:44;15.50;;;7.65;;
54937;SDS011;52756;52.826;6.214;2022-12-22T15:53:11;13.85;;;9.02;;
54937;SDS011;52756;52.826;6.214;2022-12-22T15:55:40;11.48;;;8.27;;
54937;SDS011;52756;52.826;6.214;2022-12-22T15:58:12;15.02;;;10.30;;
54937;SDS011;52756;52.826;6.214;2022-12-22T16:00:40;19.33;;;10.95;;
54937;SDS011;52756;52.826;6.214;2022-12-22T16:03:08;12.95;;;10.40;;
54937;SDS011;52756;52.826;6.214;2022-12-22T16:05:35;17.02;;;11.25;;
54937;SDS011;52756;52.826;6.214;2022-12-22T16:08:01;14.80;;;9.57;;
54937;SDS011;52756;52.826;6.214;2022-12-22T16:10:29;14.80;;;11.68;;
54937;SDS011;52756;52.826;6.214;2022-12-22T16:12:58;16.42;;;10.95;;
54937;SDS011;52756;52.826;6.214;2022-12-22T16:15:27;12.05;;;9.38;;
54937;SDS011;52756;52.826;6.214;2022-12-22T16:17:56;13.93;;;10.98;;
54937;SDS011;52756;52.826;6.214;2022-12-22T16:20:24;16.33;;;11.32;;
54937;SDS011;52756;52.826;6.214;2022-12-22T16:22:51;15.35;;;11.68;;
54937;SDS011;52756;52.826;6.214;2022-12-22T16:25:19;15.82;;;11.57;;
54937;SDS011;52756;52.826;6.214;2022-12-22T16:27:48;17.20;;;12.73;;
54937;SDS011;52756;52.826;6.214;2022-12-22T16:30:18;15.63;;;11.38;;
54937;SDS011;52756;52.826;6.214;2022-12-22T16:32:46;18.20;;;12.57;;
54937;SDS011;52756;52.826;6.214;2022-12-22T16:35:13;21.00;;;14.60;;
54937;SDS011;52756;52.826;6.214;2022-12-22T16:37:43;20.52;;;15.07;;
54937;SDS011;52756;52.826;6.214;2022-12-22T16:40:10;17.75;;;13.35;;
54937;SDS011;52756;52.826;6.214;2022-12-22T16:42:36;18.65;;;13.45;;
54937;SDS011;52756;52.826;6.214;2022-12-22T16:45:05;20.73;;;13.35;;
54937;SDS011;52756;52.826;6.214;2022-12-22T16:47:42;22.70;;;15.18;;
54937;SDS011;52756;52.826;6.214;2022-12-22T16:50:15;20.80;;;13.77;;
54937;SDS011;52756;52.826;6.214;2022-12-22T16:52:44;22.33;;;16.00;;
54937;SDS011;52756;52.826;6.214;2022-12-22T16:55:14;24.55;;;16.05;;
54937;SDS011;52756;52.826;6.214;2022-12-22T16:57:42;23.50;;;16.95;;
54937;SDS011;52756;52.826;6.214;2022-12-22T17:00:15;24.20;;;15.98;;
54937;SDS011;52756;52.826;6.214;2022-12-22T17:02:54;24.77;;;15.82;;
54937;SDS011;52756;52.826;6.214;2022-12-22T17:05:26;25.13;;;16.35;;
54937;SDS011;52756;52.826;6.214;2022-12-22T17:07:56;25.90;;;17.33;;
54937;SDS011;52756;52.826;6.214;2022-12-22T17:10:23;26.08;;;17.25;;
54937;SDS011;52756;52.826;6.214;2022-12-22T17:12:49;25.50;;;17.35;;
54937;SDS011;52756;52.826;6.214;2022-12-22T17:15:18;27.73;;;18.42;;
54937;SDS011;52756;52.826;6.214;2022-12-22T17:17:46;27.90;;;17.13;;